createdAt,value
2017-09-07T00:01:40.527Z,53.50
2017-09-07T00:04:08.031Z,53.80
2017-09-07T00:06:35.550Z,53.90
2017-09-07T00:09:03.064Z,54.10
2017-09-07T00:11:30.591Z,54.10
2017-09-07T00:13:58.095Z,54.20
2017-09-07T00:16:25.626Z,54.30
2017-09-07T00:18:53.124Z,54.30
2017-09-07T00:21:20.658Z,54.40
2017-09-07T00:24:39.364Z,54.50
2017-09-07T00:27:06.927Z,54.40
2017-09-07T00:29:34.440Z,54.50
2017-09-07T00:32:01.972Z,54.60
2017-09-07T00:34:29.500Z,54.60
2017-09-07T00:36:57.014Z,54.80
2017-09-07T00:39:24.511Z,54.90
2017-09-07T00:41:52.028Z,55.00
2017-09-07T00:44:19.536Z,54.80
2017-09-07T00:46:47.082Z,54.90
2017-09-07T00:49:15.379Z,54.70
2017-09-07T00:51:42.889Z,54.50
2017-09-07T00:54:10.396Z,54.70
2017-09-07T00:56:37.912Z,54.00
2017-09-07T00:59:05.406Z,54.00
2017-09-07T01:01:32.934Z,54.00
2017-09-07T01:04:00.455Z,54.10
2017-09-07T01:06:27.982Z,54.10
2017-09-07T01:08:55.498Z,54.20
2017-09-07T01:11:22.996Z,54.20
2017-09-07T01:13:51.366Z,54.20
2017-09-07T01:16:19.647Z,53.90
2017-09-07T01:18:47.930Z,53.90
2017-09-07T01:21:16.193Z,53.90
2017-09-07T01:23:44.491Z,53.80
2017-09-07T01:26:11.997Z,53.80
2017-09-07T01:28:39.522Z,53.80
2017-09-07T01:31:07.812Z,54.10
2017-09-07T01:33:35.355Z,54.00
2017-09-07T01:36:02.881Z,54.20
2017-09-07T01:38:31.171Z,54.40
2017-09-07T01:40:59.458Z,54.40
2017-09-07T01:43:26.979Z,54.40
2017-09-07T01:45:54.497Z,54.50
2017-09-07T01:48:33.682Z,54.60
2017-09-07T01:51:01.954Z,54.40
2017-09-07T01:53:29.468Z,54.30
2017-09-07T01:55:56.970Z,54.40
2017-09-07T01:58:24.487Z,54.50
2017-09-07T02:00:51.994Z,54.40
2017-09-07T02:03:20.296Z,53.60
2017-09-07T02:05:47.818Z,53.50
2017-09-07T02:08:15.348Z,53.50
2017-09-07T02:10:42.859Z,52.90
2017-09-07T02:13:11.134Z,52.80
2017-09-07T02:15:39.427Z,52.70
2017-09-07T02:18:06.937Z,52.60
2017-09-07T02:20:34.461Z,52.60
2017-09-07T02:23:01.967Z,52.80
2017-09-07T02:25:29.490Z,52.80
2017-09-07T02:27:56.991Z,52.90
2017-09-07T02:30:25.303Z,53.40
2017-09-07T02:32:52.823Z,53.20
2017-09-07T02:35:20.351Z,53.10
2017-09-07T02:37:47.859Z,53.20
2017-09-07T02:40:16.149Z,53.00
2017-09-07T02:42:43.662Z,52.70
2017-09-07T02:45:11.182Z,52.80
2017-09-07T02:47:38.749Z,52.80
2017-09-07T02:50:06.296Z,53.40
2017-09-07T02:52:33.794Z,53.00
2017-09-07T02:55:01.320Z,53.00
2017-09-07T02:57:28.831Z,53.10
2017-09-07T02:59:56.347Z,53.10
2017-09-07T03:02:23.870Z,53.10
2017-09-07T03:04:52.199Z,53.00
2017-09-07T03:07:19.737Z,52.80
2017-09-07T03:09:47.285Z,53.00
2017-09-07T03:12:14.783Z,52.90
2017-09-07T03:14:42.288Z,53.00
2017-09-07T03:17:09.838Z,53.10
2017-09-07T03:19:38.150Z,53.50
2017-09-07T03:22:05.676Z,53.20
2017-09-07T03:24:33.955Z,53.30
2017-09-07T03:27:02.247Z,52.80
2017-09-07T03:29:29.758Z,52.70
2017-09-07T03:31:57.280Z,52.60
2017-09-07T03:34:24.794Z,52.50
2017-09-07T03:36:52.317Z,52.60
2017-09-07T03:39:19.831Z,52.20
2017-09-07T03:41:48.371Z,52.30
2017-09-07T03:44:15.884Z,52.30
2017-09-07T03:46:44.162Z,52.30
2017-09-07T03:49:11.708Z,52.30
2017-09-07T03:51:39.999Z,52.50
2017-09-07T03:54:08.276Z,52.60
2017-09-07T03:56:35.818Z,52.50
2017-09-07T03:59:04.087Z,52.50
2017-09-07T04:01:32.374Z,52.90
2017-09-07T04:04:00.658Z,52.60
2017-09-07T04:06:28.943Z,52.50
2017-09-07T04:08:57.216Z,52.50
2017-09-07T04:11:25.520Z,52.50
2017-09-07T04:13:53.034Z,52.40
2017-09-07T04:16:21.348Z,52.50
2017-09-07T04:18:48.859Z,52.50
2017-09-07T04:21:16.368Z,52.40
2017-09-07T04:23:43.890Z,52.50
2017-09-07T04:26:12.171Z,52.60
2017-09-07T04:28:39.695Z,52.60
2017-09-07T04:31:07.208Z,52.50
2017-09-07T04:33:34.738Z,52.50
2017-09-07T04:36:02.276Z,52.60
2017-09-07T04:38:29.807Z,52.70
2017-09-07T04:40:57.316Z,52.70
2017-09-07T04:43:25.612Z,52.70
2017-09-07T04:45:53.166Z,52.50
2017-09-07T04:48:21.467Z,52.80
2017-09-07T04:50:48.978Z,52.80
2017-09-07T04:53:16.494Z,52.90
2017-09-07T04:55:44.024Z,53.00
2017-09-07T04:58:12.316Z,53.10
2017-09-07T05:00:39.826Z,53.00
2017-09-07T05:03:07.355Z,53.20
2017-09-07T05:05:34.896Z,53.20
2017-09-07T05:08:02.419Z,53.20
2017-09-07T05:10:29.928Z,53.40
2017-09-07T05:12:58.223Z,53.70
2017-09-07T05:15:25.742Z,53.60
2017-09-07T05:17:54.026Z,54.10
2017-09-07T05:20:21.556Z,54.10
2017-09-07T05:22:49.059Z,54.00
2017-09-07T05:25:17.347Z,54.00
2017-09-07T05:27:44.923Z,54.00
2017-09-07T05:30:12.454Z,54.10
2017-09-07T05:32:39.955Z,54.30
2017-09-07T05:35:07.470Z,54.30
2017-09-07T05:37:34.981Z,54.40
2017-09-07T05:40:02.588Z,54.60
2017-09-07T05:42:30.966Z,55.20
2017-09-07T05:44:58.783Z,55.10
2017-09-07T05:47:26.494Z,55.50
2017-09-07T05:49:54.031Z,55.80
2017-09-07T05:52:22.302Z,56.70
2017-09-07T05:54:50.612Z,56.90
2017-09-07T05:57:18.129Z,56.80
2017-09-07T05:59:45.674Z,57.20
2017-09-07T06:02:13.219Z,57.30
2017-09-07T06:04:40.786Z,57.50
2017-09-07T06:07:09.279Z,57.70
2017-09-07T06:09:36.895Z,57.90
2017-09-07T06:12:04.467Z,57.90
2017-09-07T06:14:31.982Z,58.00
2017-09-07T06:17:00.254Z,58.00
2017-09-07T06:19:27.776Z,58.00
2017-09-07T06:21:55.381Z,58.00
2017-09-07T06:24:23.678Z,58.30
2017-09-07T06:26:51.187Z,58.20
2017-09-07T06:29:18.699Z,58.50
2017-09-07T06:31:46.249Z,58.60
2017-09-07T06:34:13.755Z,58.80
2017-09-07T06:36:41.302Z,58.90
2017-09-07T06:39:08.804Z,58.90
2017-09-07T06:41:37.107Z,59.00
2017-09-07T06:44:04.622Z,58.90
2017-09-07T06:46:32.145Z,59.00
2017-09-07T06:48:59.656Z,58.60
2017-09-07T06:51:27.179Z,58.40
2017-09-07T06:53:55.451Z,58.70
2017-09-07T06:56:22.980Z,58.70
2017-09-07T06:58:50.495Z,58.50
2017-09-07T07:01:18.031Z,58.10
2017-09-07T07:03:45.539Z,58.20
2017-09-07T07:06:13.814Z,58.60
2017-09-07T07:08:41.314Z,58.40
2017-09-07T07:11:08.822Z,58.60
2017-09-07T07:13:37.122Z,58.10
2017-09-07T07:16:04.666Z,58.10
2017-09-07T07:18:32.939Z,58.00
2017-09-07T07:21:01.223Z,57.90
2017-09-07T07:23:29.499Z,57.60
2017-09-07T07:25:57.834Z,57.50
2017-09-07T07:28:25.349Z,57.50
2017-09-07T07:30:53.616Z,57.90
2017-09-07T07:33:21.906Z,58.10
2017-09-07T07:35:49.425Z,58.10
2017-09-07T07:38:16.956Z,58.70
2017-09-07T07:40:44.458Z,57.90
2017-09-07T07:43:11.996Z,58.10
2017-09-07T07:45:39.507Z,58.20
2017-09-07T07:48:07.032Z,57.80
2017-09-07T07:50:34.547Z,57.50
2017-09-07T07:53:02.083Z,56.90
2017-09-07T07:55:29.589Z,56.80
2017-09-07T07:57:57.111Z,56.60
2017-09-07T08:00:24.614Z,56.10
2017-09-07T08:02:52.139Z,56.10
2017-09-07T08:05:19.646Z,57.00
2017-09-07T08:07:47.939Z,57.40
2017-09-07T08:10:16.215Z,56.30
2017-09-07T08:12:44.503Z,57.10
2017-09-07T08:15:12.777Z,56.80
2017-09-07T08:17:40.313Z,56.80
2017-09-07T08:20:07.830Z,56.30
2017-09-07T08:22:35.350Z,57.30
2017-09-07T08:25:03.682Z,57.00
2017-09-07T08:27:31.208Z,57.00
2017-09-07T08:29:58.721Z,56.50
2017-09-07T08:32:26.217Z,56.20
2017-09-07T08:34:53.747Z,55.00
2017-09-07T08:37:21.254Z,54.80
2017-09-07T08:39:48.775Z,54.30
2017-09-07T08:42:17.042Z,54.20
2017-09-07T08:44:44.555Z,54.20
2017-09-07T08:47:12.063Z,54.80
2017-09-07T08:49:39.579Z,53.50
2017-09-07T08:52:07.091Z,55.00
2017-09-07T08:54:35.931Z,53.90
2017-09-07T08:57:03.439Z,53.80
2017-09-07T08:59:31.718Z,52.40
2017-09-07T09:01:59.225Z,52.20
2017-09-07T09:04:26.751Z,52.10
2017-09-07T09:06:54.262Z,52.20
2017-09-07T09:09:21.783Z,51.30
2017-09-07T09:11:49.298Z,50.60
2017-09-07T09:14:16.842Z,51.00
2017-09-07T09:16:44.346Z,50.90
2017-09-07T09:19:11.870Z,50.30
2017-09-07T09:21:39.378Z,50.20
2017-09-07T09:24:06.934Z,50.00
2017-09-07T09:26:34.447Z,49.80
2017-09-07T09:29:01.967Z,51.70
2017-09-07T09:31:29.462Z,49.00
2017-09-07T09:33:56.970Z,48.60
2017-09-07T09:36:24.487Z,48.10
2017-09-07T09:38:52.018Z,47.20
2017-09-07T09:41:19.556Z,47.30
2017-09-07T09:43:47.086Z,47.70
2017-09-07T09:46:15.358Z,48.00
2017-09-07T09:48:43.630Z,46.50
2017-09-07T09:51:11.915Z,46.60
2017-09-07T09:53:40.182Z,46.80
2017-09-07T09:56:08.471Z,48.50
2017-09-07T09:58:36.742Z,47.40
2017-09-07T10:01:05.037Z,46.60
2017-09-07T10:03:32.550Z,46.60
2017-09-07T10:06:00.083Z,46.90
2017-09-07T10:08:27.592Z,45.90
2017-09-07T10:10:55.878Z,45.50
2017-09-07T10:13:24.150Z,45.70
2017-09-07T10:15:52.443Z,46.00
2017-09-07T10:18:19.946Z,46.00
2017-09-07T10:20:47.466Z,46.00
2017-09-07T10:23:14.996Z,45.00
2017-09-07T10:25:43.284Z,45.90
2017-09-07T10:28:11.560Z,46.20
2017-09-07T10:30:39.852Z,46.40
2017-09-07T10:33:07.365Z,46.40
2017-09-07T10:35:34.903Z,46.50
2017-09-07T10:38:02.412Z,46.10
2017-09-07T10:40:30.690Z,44.50
2017-09-07T10:42:58.979Z,44.80
2017-09-07T10:45:27.251Z,43.20
2017-09-07T10:47:55.582Z,45.10
2017-09-07T10:50:23.082Z,44.90
2017-09-07T10:52:51.380Z,43.60
2017-09-07T10:55:18.894Z,43.60
2017-09-07T10:57:46.411Z,43.00
2017-09-07T11:00:13.921Z,44.10
2017-09-07T11:02:41.447Z,43.00
2017-09-07T11:05:08.953Z,42.90
2017-09-07T11:07:37.234Z,43.10
2017-09-07T11:10:05.559Z,42.90
2017-09-07T11:12:33.086Z,42.70
2017-09-07T11:15:00.598Z,43.20
2017-09-07T11:17:28.130Z,43.10
2017-09-07T11:19:55.629Z,43.00
2017-09-07T11:22:23.147Z,42.60
2017-09-07T11:24:50.646Z,42.80
2017-09-07T11:27:18.173Z,43.80
2017-09-07T11:29:45.690Z,43.50
2017-09-07T11:32:13.218Z,43.50
2017-09-07T11:34:40.748Z,42.70
2017-09-07T11:37:08.283Z,43.00
2017-09-07T11:39:35.823Z,43.70
2017-09-07T11:42:04.103Z,43.30
2017-09-07T11:44:32.392Z,43.70
2017-09-07T11:46:59.899Z,43.50
2017-09-07T11:49:27.430Z,44.70
2017-09-07T11:51:54.935Z,44.00
2017-09-07T11:54:22.464Z,43.00
2017-09-07T11:56:49.967Z,43.70
2017-09-07T11:59:18.246Z,43.40
2017-09-07T12:01:45.765Z,43.40
2017-09-07T12:04:13.285Z,43.50
2017-09-07T12:06:40.815Z,43.50
2017-09-07T12:09:09.108Z,42.90
2017-09-07T12:11:37.383Z,42.90
2017-09-07T12:14:04.919Z,43.50
2017-09-07T12:16:32.429Z,43.10
2017-09-07T12:18:59.959Z,43.20
2017-09-07T12:21:28.232Z,43.40
2017-09-07T12:23:56.516Z,43.70
2017-09-07T12:26:24.023Z,43.60
2017-09-07T12:28:51.600Z,43.70
2017-09-07T12:31:19.174Z,43.70
2017-09-07T12:33:47.469Z,43.60
2017-09-07T12:36:14.983Z,43.50
2017-09-07T12:38:42.519Z,44.30
2017-09-07T12:41:10.045Z,45.60
2017-09-07T12:43:38.314Z,46.20
2017-09-07T12:46:06.671Z,46.70
2017-09-07T12:48:34.191Z,46.50
2017-09-07T12:51:01.714Z,46.50
2017-09-07T12:53:29.983Z,46.50
2017-09-07T12:55:58.280Z,47.30
2017-09-07T12:58:25.842Z,47.30
2017-09-07T13:00:53.375Z,47.30
2017-09-07T13:03:21.662Z,46.70
2017-09-07T13:05:49.195Z,46.60
2017-09-07T13:08:16.708Z,46.40
2017-09-07T13:10:44.239Z,46.50
2017-09-07T13:13:12.511Z,46.20
2017-09-07T13:15:40.034Z,46.10
2017-09-07T13:18:07.555Z,46.50
2017-09-07T13:20:35.075Z,45.10
2017-09-07T13:23:02.593Z,45.00
2017-09-07T13:25:30.171Z,44.20
2017-09-07T13:27:57.671Z,43.80
2017-09-07T13:30:25.195Z,44.30
2017-09-07T13:32:52.748Z,44.50
2017-09-07T13:35:20.299Z,44.70
2017-09-07T13:37:47.804Z,44.40
2017-09-07T13:40:16.106Z,44.30
2017-09-07T13:42:43.637Z,44.80
2017-09-07T13:45:11.946Z,44.80
2017-09-07T13:47:39.483Z,44.20
2017-09-07T13:50:06.975Z,44.40
2017-09-07T13:52:34.493Z,44.20
2017-09-07T13:55:02.769Z,44.40
2017-09-07T13:57:30.282Z,44.30
2017-09-07T13:59:57.786Z,44.50
2017-09-07T14:02:26.092Z,43.20
2017-09-07T14:04:53.615Z,43.00
2017-09-07T14:07:21.140Z,42.20
2017-09-07T14:09:49.412Z,42.40
2017-09-07T14:12:16.922Z,42.30
2017-09-07T14:14:44.431Z,42.30
2017-09-07T14:17:11.955Z,42.00
2017-09-07T14:19:40.226Z,42.90
2017-09-07T14:22:08.526Z,43.30
2017-09-07T14:24:36.789Z,42.80
2017-09-07T14:27:05.081Z,42.30
2017-09-07T14:29:32.588Z,42.20
2017-09-07T14:32:00.113Z,42.10
2017-09-07T14:34:27.626Z,42.50
2017-09-07T14:36:55.282Z,42.50
2017-09-07T14:39:22.795Z,42.10
2017-09-07T14:41:50.315Z,41.80
2017-09-07T14:44:17.806Z,42.30
2017-09-07T14:46:45.343Z,41.50
2017-09-07T14:49:12.848Z,42.30
2017-09-07T14:51:40.345Z,42.40
2017-09-07T14:54:07.868Z,42.50
2017-09-07T14:56:35.377Z,42.50
2017-09-07T14:59:02.977Z,42.40
2017-09-07T15:01:30.472Z,42.50
2017-09-07T15:03:57.998Z,41.80
2017-09-07T15:06:25.506Z,41.50
2017-09-07T15:08:53.790Z,41.90
2017-09-07T15:11:22.059Z,41.40
2017-09-07T15:13:49.575Z,41.30
2017-09-07T15:16:17.078Z,41.60
2017-09-07T15:18:45.386Z,42.20
2017-09-07T15:21:12.915Z,42.20
2017-09-07T15:23:40.438Z,42.30
2017-09-07T15:26:07.927Z,42.20
2017-09-07T15:28:35.473Z,42.70
2017-09-07T15:31:02.989Z,42.90
2017-09-07T15:33:30.524Z,42.50
2017-09-07T15:35:58.047Z,42.60
2017-09-07T15:38:25.574Z,43.20
2017-09-07T15:40:53.075Z,43.60
2017-09-07T15:43:20.603Z,43.20
2017-09-07T15:45:48.102Z,42.40
2017-09-07T15:48:15.617Z,42.40
2017-09-07T15:50:43.119Z,42.50
2017-09-07T15:53:10.627Z,42.50
2017-09-07T15:55:38.158Z,42.80
2017-09-07T15:58:06.423Z,43.00
2017-09-07T16:00:34.711Z,43.30
2017-09-07T16:03:02.982Z,43.90
2017-09-07T16:05:31.282Z,43.30
2017-09-07T16:07:58.783Z,43.10
2017-09-07T16:10:26.320Z,42.20
2017-09-07T16:12:53.882Z,42.70
2017-09-07T16:15:21.394Z,42.90
2017-09-07T16:17:48.910Z,43.20
2017-09-07T16:20:16.439Z,43.90
2017-09-07T16:22:43.948Z,45.10
2017-09-07T16:25:11.471Z,44.80
2017-09-07T16:27:38.978Z,44.60
2017-09-07T16:30:06.504Z,43.50
2017-09-07T16:32:34.011Z,43.90
2017-09-07T16:35:02.293Z,43.70
2017-09-07T16:37:30.559Z,44.50
2017-09-07T16:39:58.850Z,45.20
2017-09-07T16:42:26.354Z,45.20
2017-09-07T16:44:53.880Z,44.80
2017-09-07T16:47:21.414Z,44.50
2017-09-07T16:49:49.707Z,43.70
2017-09-07T16:52:17.979Z,43.80
2017-09-07T16:54:46.255Z,44.00
2017-09-07T16:57:14.561Z,44.20
2017-09-07T16:59:42.058Z,44.20
2017-09-07T17:02:09.578Z,43.90
2017-09-07T17:04:37.202Z,44.10
2017-09-07T17:07:04.744Z,44.20
2017-09-07T17:09:32.248Z,44.60
2017-09-07T17:11:59.767Z,45.40
2017-09-07T17:14:27.268Z,46.20
2017-09-07T17:16:55.551Z,46.60
2017-09-07T17:19:23.066Z,46.60
2017-09-07T17:21:50.603Z,47.10
2017-09-07T17:24:18.210Z,47.10
2017-09-07T17:26:47.317Z,47.40
2017-09-07T17:29:14.835Z,47.30
2017-09-07T17:31:42.360Z,47.80
2017-09-07T17:34:09.870Z,47.80
2017-09-07T17:36:37.392Z,47.80
2017-09-07T17:39:04.900Z,48.00
2017-09-07T17:41:33.183Z,48.20
2017-09-07T17:44:00.776Z,48.10
2017-09-07T17:46:29.157Z,48.50
2017-09-07T17:48:56.663Z,48.50
2017-09-07T17:51:24.994Z,48.70
2017-09-07T17:53:52.499Z,48.70
2017-09-07T17:56:20.815Z,49.30
2017-09-07T17:58:48.324Z,49.20
2017-09-07T18:01:15.882Z,49.50
2017-09-07T18:03:43.411Z,49.80
2017-09-07T18:06:10.909Z,50.40
2017-09-07T18:08:39.292Z,51.00
2017-09-07T18:11:07.562Z,51.20
2017-09-07T18:13:35.172Z,51.20
2017-09-07T18:16:02.686Z,51.80
2017-09-07T18:18:31.039Z,52.30
2017-09-07T18:20:58.618Z,52.40
2017-09-07T18:23:26.177Z,52.50
2017-09-07T18:25:53.733Z,52.90
2017-09-07T18:28:21.322Z,53.20
2017-09-07T18:30:49.637Z,53.60
2017-09-07T18:33:17.211Z,53.60
2017-09-07T18:35:44.817Z,53.70
2017-09-07T18:38:13.167Z,54.10
2017-09-07T18:40:40.747Z,53.90
2017-09-07T18:43:08.282Z,54.10
2017-09-07T18:45:35.838Z,54.10
2017-09-07T18:48:03.414Z,54.10
2017-09-07T18:50:30.969Z,54.20
2017-09-07T18:52:58.487Z,54.30
2017-09-07T18:55:27.017Z,54.30
2017-09-07T18:57:54.591Z,54.30
2017-09-07T19:00:22.865Z,54.20
2017-09-07T19:02:50.383Z,54.20
2017-09-07T19:05:17.914Z,54.30
2017-09-07T19:07:45.434Z,54.30
2017-09-07T19:10:12.996Z,54.40
2017-09-07T19:12:41.275Z,54.40
2017-09-07T19:15:09.566Z,54.60
2017-09-07T19:17:37.141Z,54.50
2017-09-07T19:20:04.662Z,54.70
2017-09-07T19:22:32.176Z,54.70
2017-09-07T19:24:59.692Z,54.60
2017-09-07T19:27:27.954Z,55.00
2017-09-07T19:29:55.475Z,54.70
2017-09-07T19:32:22.990Z,54.80
2017-09-07T19:34:51.278Z,54.90
2017-09-07T19:37:18.965Z,54.90
2017-09-07T19:39:46.685Z,55.10
2017-09-07T19:42:14.994Z,55.10
2017-09-07T19:44:42.552Z,55.40
2017-09-07T19:47:10.565Z,55.60
2017-09-07T19:49:38.146Z,55.80
2017-09-07T19:52:06.439Z,56.20
2017-09-07T19:54:34.730Z,56.40
2017-09-07T19:57:02.294Z,56.40
2017-09-07T19:59:30.617Z,56.60
2017-09-07T20:01:58.141Z,56.60
2017-09-07T20:04:26.666Z,56.80
2017-09-07T20:06:54.354Z,56.90
2017-09-07T20:09:21.900Z,56.90
2017-09-07T20:11:49.524Z,56.90
2017-09-07T20:14:17.812Z,57.10
2017-09-07T20:16:46.119Z,57.20
2017-09-07T20:19:13.635Z,57.20
2017-09-07T20:21:41.158Z,57.40
2017-09-07T20:24:09.468Z,57.80
2017-09-07T20:26:36.987Z,57.70
2017-09-07T20:29:05.267Z,58.20
2017-09-07T20:31:33.551Z,58.00
2017-09-07T20:34:01.839Z,58.10
2017-09-07T20:36:29.376Z,57.90
2017-09-07T20:38:57.654Z,58.00
2017-09-07T20:41:25.946Z,58.10
2017-09-07T20:43:54.239Z,58.00
2017-09-07T20:46:21.778Z,57.90
2017-09-07T20:48:50.058Z,57.90
2017-09-07T20:51:18.356Z,57.70
2017-09-07T20:53:45.897Z,57.70
2017-09-07T20:56:13.624Z,57.60
2017-09-07T20:58:41.138Z,57.60
2017-09-07T21:01:08.659Z,57.60
2017-09-07T21:03:36.176Z,57.40
2017-09-07T21:06:03.708Z,57.30
2017-09-07T21:08:31.231Z,57.40
2017-09-07T21:10:58.755Z,57.30
2017-09-07T21:13:26.269Z,57.30
2017-09-07T21:15:54.544Z,57.40
2017-09-07T21:18:22.830Z,57.50
2017-09-07T21:20:51.103Z,57.50
2017-09-07T21:23:19.390Z,57.60
2017-09-07T21:25:46.904Z,57.60
2017-09-07T21:28:14.432Z,57.60
2017-09-07T21:30:41.937Z,57.80
2017-09-07T21:33:09.466Z,57.80
2017-09-07T21:35:36.981Z,57.90
2017-09-07T21:38:04.509Z,58.00
2017-09-07T21:40:32.014Z,58.00
2017-09-07T21:42:59.544Z,58.10
2017-09-07T21:45:27.818Z,58.40
2017-09-07T21:47:56.119Z,58.50
2017-09-07T21:50:23.635Z,58.40
2017-09-07T21:52:51.171Z,58.50
2017-09-07T21:55:18.673Z,58.50
2017-09-07T21:57:46.971Z,58.50
2017-09-07T22:00:14.477Z,58.50
2017-09-07T22:02:42.016Z,58.40
2017-09-07T22:05:09.514Z,59.10
2017-09-07T22:07:37.046Z,58.50
2017-09-07T22:10:04.572Z,58.50
2017-09-07T22:12:32.141Z,58.60
2017-09-07T22:14:59.644Z,58.50
2017-09-07T22:17:27.150Z,58.40
2017-09-07T22:19:54.694Z,58.30
2017-09-07T22:22:22.987Z,58.30
2017-09-07T22:24:50.516Z,58.20
2017-09-07T22:27:18.018Z,58.30
2017-09-07T22:29:45.562Z,58.20
2017-09-07T22:32:13.082Z,58.20
2017-09-07T22:34:40.613Z,58.20
2017-09-07T22:37:08.147Z,58.20
2017-09-07T22:39:35.674Z,58.30
2017-09-07T22:42:03.955Z,58.30
2017-09-07T22:44:32.249Z,58.30
2017-09-07T22:47:00.534Z,58.40
2017-09-07T22:49:28.059Z,58.30
2017-09-07T22:51:55.563Z,58.40
2017-09-07T22:54:23.086Z,58.50
2017-09-07T22:56:51.363Z,58.60
2017-09-07T22:59:19.648Z,58.70
2017-09-07T23:01:47.922Z,58.70
2017-09-07T23:04:16.203Z,58.80
2017-09-07T23:06:44.496Z,58.90
2017-09-07T23:09:12.013Z,58.80
2017-09-07T23:11:39.531Z,58.90
2017-09-07T23:14:07.200Z,58.80
2017-09-07T23:16:34.716Z,58.90
2017-09-07T23:19:02.997Z,59.10
2017-09-07T23:21:31.309Z,59.10
2017-09-07T23:23:58.816Z,59.10
2017-09-07T23:26:27.114Z,59.80
2017-09-07T23:28:55.410Z,59.10
2017-09-07T23:31:22.930Z,59.00
2017-09-07T23:33:50.430Z,59.00
2017-09-07T23:36:18.233Z,59.00
2017-09-07T23:38:45.766Z,59.00
2017-09-07T23:41:13.290Z,58.90
2017-09-07T23:43:41.571Z,59.00
2017-09-07T23:46:09.095Z,58.90
2017-09-07T23:48:36.600Z,58.90
2017-09-07T23:51:04.119Z,59.00
2017-09-07T23:53:31.639Z,58.90
2017-09-07T23:55:59.171Z,58.80
2017-09-07T23:58:26.678Z,58.70
